Time;durP1;ratioP1;P1;durP2;ratioP2;P2;SDS_P1;SDS_P2;PMS_P1;PMS_P2;Temp;Humidity;BMP_temperature;BMP_pressure;BME280_temperature;BME280_humidity;BME280_pressure;Samples;Min_cycle;Max_cycle;Signal;HPM_P1;HPM_P2
2022/04/06 00:01:43;;;;;;;27.17;22.10;;;7.50;83.40;;;;;;5073345;28;20024;-70
2022/04/06 00:04:09;;;;;;;29.13;22.20;;;7.50;83.80;;;;;;5073185;28;20162;-70
2022/04/06 00:06:35;;;;;;;25.87;21.07;;;7.50;83.90;;;;;;5073030;28;20116;-73
2022/04/06 00:09:01;;;;;;;28.80;20.53;;;7.40;83.50;;;;;;5073179;28;20031;-72
2022/04/06 00:11:27;;;;;;;27.23;21.17;;;7.40;83.70;;;;;;5073149;28;20024;-72
2022/04/06 00:13:52;;;;;;;27.07;22.40;;;7.40;84.00;;;;;;5073128;28;20072;-72
2022/04/06 00:16:18;;;;;;;29.10;22.10;;;7.40;84.30;;;;;;5073066;28;20044;-73
2022/04/06 00:18:44;;;;;;;27.30;21.50;;;7.30;84.50;;;;;;5072806;28;20526;-72
2022/04/06 00:21:11;;;;;;;26.50;21.03;;;7.30;84.80;;;;;;5072864;28;20485;-72
2022/04/06 00:23:37;;;;;;;27.57;21.40;;;7.30;84.90;;;;;;5072639;28;20032;-72
2022/04/06 00:26:03;;;;;;;26.73;21.83;;;7.30;85.10;;;;;;5072771;28;20036;-72
2022/04/06 00:28:28;;;;;;;25.53;20.73;;;7.30;85.20;;;;;;5072753;28;20035;-72
2022/04/06 00:30:54;;;;;;;29.30;21.80;;;7.20;84.90;;;;;;5073001;28;20111;-73
2022/04/06 00:33:20;;;;;;;26.50;21.97;;;7.30;85.60;;;;;;5073499;28;20029;-72
2022/04/06 00:35:45;;;;;;;27.70;21.43;;;7.30;85.30;;;;;;5073348;28;20037;-72
2022/04/06 00:38:11;;;;;;;28.50;21.67;;;7.20;85.60;;;;;;5073515;28;20028;-71
2022/04/06 00:40:38;;;;;;;26.70;21.17;;;7.30;85.20;;;;;;5073508;28;20469;-72
2022/04/06 00:43:10;;;;;;;24.70;21.27;;;7.30;85.70;;;;;;5073039;28;20487;-72
2022/04/06 00:45:38;;;;;;;29.30;21.48;;;7.30;85.50;;;;;;5073063;28;20122;-72
2022/04/06 00:48:04;;;;;;;26.00;22.17;;;7.30;85.60;;;;;;5073167;28;20497;-72
2022/04/06 00:50:30;;;;;;;28.40;21.60;;;7.30;84.90;;;;;;5072820;28;20513;-72
2022/04/06 00:52:57;;;;;;;28.70;22.03;;;7.30;84.50;;;;;;5072699;28;20029;-72
2022/04/06 00:55:34;;;;;;;26.50;20.60;;;7.30;84.50;;;;;;5073071;28;20040;-73
2022/04/06 00:58:01;;;;;;;28.03;20.17;;;7.30;84.30;;;;;;5071441;28;20182;-72
2022/04/06 01:00:28;;;;;;;26.97;21.70;;;7.40;85.10;;;;;;5070315;28;20040;-72
2022/04/06 01:02:54;;;;;;;30.40;21.23;;;7.40;84.60;;;;;;5070475;28;20122;-72
2022/04/06 01:05:19;;;;;;;27.47;20.90;;;7.40;85.40;;;;;;5072388;28;20079;-72
2022/04/06 01:07:50;;;;;;;26.83;21.13;;;7.40;84.80;;;;;;5072304;28;20154;-72
2022/04/06 01:10:16;;;;;;;27.97;20.40;;;7.40;83.80;;;;;;5072246;28;20032;-72
2022/04/06 01:12:46;;;;;;;23.63;19.60;;;7.40;83.90;;;;;;5071885;28;20029;-73
2022/04/06 01:15:12;;;;;;;27.73;20.57;;;7.40;83.90;;;;;;5072066;28;20037;-72
2022/04/06 01:17:38;;;;;;;27.20;21.90;;;7.40;83.90;;;;;;5071612;28;20472;-72
2022/04/06 01:20:08;;;;;;;25.77;19.60;;;7.40;83.80;;;;;;5071308;28;20111;-72
2022/04/06 01:22:34;;;;;;;23.80;20.13;;;7.40;83.70;;;;;;5071971;28;20039;-72
2022/04/06 01:25:01;;;;;;;27.93;21.40;;;7.40;84.60;;;;;;5071977;28;20036;-71
2022/04/06 01:27:27;;;;;;;26.53;19.70;;;7.40;84.70;;;;;;5071950;28;20082;-72
2022/04/06 01:29:54;;;;;;;25.57;19.87;;;7.40;84.20;;;;;;5071496;28;20384;-72
2022/04/06 01:32:22;;;;;;;26.63;19.33;;;7.40;84.20;;;;;;5071407;28;20389;-72
2022/04/06 01:34:50;;;;;;;22.73;19.63;;;7.50;83.30;;;;;;5071950;28;20486;-72
2022/04/06 01:37:17;;;;;;;28.73;21.23;;;7.50;82.90;;;;;;5070947;28;20044;-72
2022/04/06 01:39:45;;;;;;;26.97;19.93;;;7.50;84.00;;;;;;5071483;28;20037;-72
2022/04/06 01:42:14;;;;;;;26.20;19.70;;;7.50;84.80;;;;;;5071239;28;20454;-72
2022/04/06 01:44:41;;;;;;;24.40;20.80;;;7.50;83.50;;;;;;5070817;28;20499;-72
2022/04/06 01:47:08;;;;;;;24.73;19.80;;;7.50;82.50;;;;;;5070333;28;20049;-72
2022/04/06 01:52:19;;;;;;;25.67;19.53;;;7.40;83.00;;;;;;5070529;28;20042;-72
2022/04/06 01:54:54;;;;;;;25.00;20.53;;;7.40;84.80;;;;;;5071060;28;20403;-72
2022/04/06 01:57:21;;;;;;;25.03;20.33;;;7.40;85.50;;;;;;5070481;28;20045;-72
2022/04/06 01:59:47;;;;;;;36.00;21.90;;;7.30;84.80;;;;;;5069927;28;20447;-72
2022/04/06 02:02:15;;;;;;;32.17;20.80;;;7.30;85.00;;;;;;5069705;28;20396;-72
2022/04/06 02:04:41;;;;;;;28.20;20.37;;;7.40;85.00;;;;;;5073713;28;20041;-72
2022/04/06 02:07:10;;;;;;;23.97;20.07;;;7.40;85.70;;;;;;5074317;28;20487;-72
2022/04/06 02:09:36;;;;;;;24.40;20.43;;;7.40;86.40;;;;;;5074282;28;20514;-72
2022/04/06 02:12:03;;;;;;;24.33;19.93;;;7.40;85.90;;;;;;5074538;28;20028;-73
2022/04/06 02:14:29;;;;;;;32.67;20.30;;;7.50;84.80;;;;;;5074419;28;20558;-72
2022/04/06 02:16:54;;;;;;;31.33;20.30;;;7.50;84.20;;;;;;5074168;28;20072;-72
2022/04/06 02:19:21;;;;;;;26.60;20.63;;;7.50;84.20;;;;;;5074357;28;20043;-72
2022/04/06 02:21:47;;;;;;;27.03;20.10;;;7.50;84.20;;;;;;5073267;28;20420;-72
2022/04/06 02:24:13;;;;;;;25.73;19.57;;;7.50;85.30;;;;;;5074512;28;20378;-72
2022/04/06 02:26:39;;;;;;;26.30;19.67;;;7.50;84.60;;;;;;5075438;28;20056;-72
2022/04/06 02:29:05;;;;;;;27.63;20.00;;;7.50;84.40;;;;;;5076008;28;20044;-72
2022/04/06 02:31:31;;;;;;;29.13;19.30;;;7.60;84.40;;;;;;5076049;28;20094;-72
2022/04/06 02:33:57;;;;;;;22.10;19.33;;;7.60;84.20;;;;;;5075554;28;20111;-72
2022/04/06 02:36:22;;;;;;;22.33;19.27;;;7.60;84.70;;;;;;5075466;28;20138;-72
2022/04/06 02:38:48;;;;;;;26.83;19.93;;;7.70;84.20;;;;;;5075945;28;20037;-72
2022/04/06 02:41:15;;;;;;;22.27;19.53;;;7.70;84.30;;;;;;5075935;28;20036;-72
2022/04/06 02:43:40;;;;;;;25.83;20.40;;;7.70;83.50;;;;;;5075902;28;20488;-72
2022/04/06 02:46:06;;;;;;;23.83;19.77;;;7.60;83.80;;;;;;5075646;28;20045;-72
2022/04/06 02:48:32;;;;;;;23.63;19.63;;;7.60;84.80;;;;;;5075608;28;20471;-72
2022/04/06 02:50:58;;;;;;;25.50;20.50;;;7.60;84.30;;;;;;5075477;28;20082;-72
2022/04/06 02:53:23;;;;;;;23.97;20.23;;;7.60;83.80;;;;;;5073817;28;20044;-72
2022/04/06 02:55:49;;;;;;;23.83;19.37;;;7.70;84.70;;;;;;5073518;28;20480;-72
2022/04/06 02:58:15;;;;;;;22.80;18.97;;;7.70;84.00;;;;;;5073825;28;20037;-72
2022/04/06 03:00:41;;;;;;;22.63;19.57;;;7.70;83.90;;;;;;5073784;28;20046;-72
2022/04/06 03:03:07;;;;;;;24.87;19.87;;;7.70;85.30;;;;;;5073980;28;20033;-72
2022/04/06 03:05:32;;;;;;;24.80;19.57;;;7.60;85.50;;;;;;5074889;28;20041;-72
2022/04/06 03:07:58;;;;;;;24.17;19.23;;;7.60;84.60;;;;;;5074472;28;20047;-72
2022/04/06 03:10:24;;;;;;;23.30;17.87;;;7.70;84.10;;;;;;5074057;28;20040;-73
2022/04/06 03:12:49;;;;;;;24.87;19.77;;;7.70;83.70;;;;;;5074009;28;20033;-73
2022/04/06 03:15:15;;;;;;;24.27;18.97;;;7.70;84.10;;;;;;5073621;28;20045;-72
2022/04/06 03:17:41;;;;;;;27.40;19.40;;;7.70;84.90;;;;;;5075128;28;20446;-72
2022/04/06 03:20:10;;;;;;;26.00;20.30;;;7.70;85.10;;;;;;5074117;28;20476;-72
2022/04/06 03:22:36;;;;;;;29.50;19.40;;;7.70;84.90;;;;;;5073543;28;20016;-72
2022/04/06 03:25:02;;;;;;;30.83;19.07;;;7.70;84.90;;;;;;5073762;28;20078;-73
2022/04/06 03:27:28;;;;;;;23.50;19.90;;;7.70;84.50;;;;;;5074468;28;20031;-72
2022/04/06 03:29:54;;;;;;;23.53;19.47;;;7.70;85.10;;;;;;5074248;28;20028;-72
2022/04/06 03:32:19;;;;;;;32.80;19.93;;;7.70;84.90;;;;;;5074181;28;20036;-72
2022/04/06 03:34:45;;;;;;;24.33;19.67;;;7.80;84.30;;;;;;5072986;28;20294;-72
2022/04/06 03:37:11;;;;;;;26.57;19.70;;;7.80;84.40;;;;;;5073656;28;20044;-72
2022/04/06 03:39:36;;;;;;;25.73;20.23;;;7.80;84.40;;;;;;5073499;28;20032;-72
2022/04/06 03:42:02;;;;;;;25.97;20.53;;;7.80;85.10;;;;;;5073526;28;20036;-73
2022/04/06 03:44:28;;;;;;;25.07;20.83;;;7.80;85.80;;;;;;5073091;28;20075;-72
2022/04/06 03:46:56;;;;;;;24.50;20.40;;;7.80;85.80;;;;;;5073260;28;20111;-72
2022/04/06 03:49:22;;;;;;;24.63;20.47;;;7.80;85.10;;;;;;5073353;28;20028;-72
2022/04/06 03:51:47;;;;;;;24.03;19.60;;;7.80;84.80;;;;;;5073601;28;20504;-72
2022/04/06 03:54:13;;;;;;;25.67;20.27;;;7.90;85.10;;;;;;5073593;28;20036;-72
2022/04/06 03:56:39;;;;;;;27.63;22.50;;;7.90;86.30;;;;;;5072476;28;20040;-72
2022/04/06 03:59:04;;;;;;;25.07;22.27;;;7.80;86.10;;;;;;5072885;28;20040;-73
2022/04/06 04:01:31;;;;;;;23.90;20.17;;;7.80;85.30;;;;;;5073238;28;20036;-72
2022/04/06 04:03:57;;;;;;;25.67;20.37;;;7.90;84.90;;;;;;5073102;28;20473;-72
2022/04/06 04:06:23;;;;;;;30.80;20.83;;;7.90;84.90;;;;;;5072788;28;20035;-72
2022/04/06 04:08:48;;;;;;;22.03;19.60;;;8.00;84.30;;;;;;5072838;28;20111;-72
2022/04/06 04:11:14;;;;;;;23.50;20.53;;;8.00;84.50;;;;;;5072607;28;20041;-72
2022/04/06 04:13:40;;;;;;;25.57;20.90;;;7.90;85.80;;;;;;5072832;28;20039;-72
2022/04/06 04:16:06;;;;;;;23.90;19.90;;;7.90;87.00;;;;;;5072343;28;20123;-72
2022/04/06 04:18:32;;;;;;;26.50;20.73;;;7.90;86.10;;;;;;5072065;28;20036;-72
2022/04/06 04:23:42;;;;;;;28.33;20.63;;;7.90;85.30;;;;;;5072309;28;20098;-72
2022/04/06 04:26:08;;;;;;;26.43;20.77;;;8.00;85.00;;;;;;5071867;28;20033;-72
2022/04/06 04:28:34;;;;;;;22.60;19.30;;;8.00;84.70;;;;;;5071578;28;20035;-72
2022/04/06 04:30:59;;;;;;;25.90;21.30;;;8.00;84.00;;;;;;5071810;28;20033;-72
2022/04/06 04:33:25;;;;;;;24.37;20.87;;;8.00;83.60;;;;;;5071663;28;20036;-71
2022/04/06 04:35:51;;;;;;;26.90;19.30;;;8.00;84.80;;;;;;5072407;28;20056;-72
2022/04/06 04:38:16;;;;;;;22.80;19.63;;;8.00;85.40;;;;;;5072664;28;20058;-73
2022/04/06 04:40:42;;;;;;;26.70;21.30;;;8.00;85.80;;;;;;5072054;28;20068;-72
2022/04/06 04:43:08;;;;;;;24.67;19.30;;;8.00;85.40;;;;;;5072156;28;20040;-72
2022/04/06 04:45:33;;;;;;;26.47;21.23;;;8.00;84.80;;;;;;5071326;28;20040;-72
2022/04/06 04:47:59;;;;;;;26.80;21.27;;;8.00;84.40;;;;;;5071998;28;20052;-72
2022/04/06 04:50:25;;;;;;;26.13;20.20;;;8.00;85.40;;;;;;5071104;28;20089;-72
2022/04/06 04:52:50;;;;;;;23.90;19.63;;;8.00;85.90;;;;;;5071771;28;20036;-72
2022/04/06 04:55:18;;;;;;;26.03;20.33;;;8.00;85.50;;;;;;5072037;28;20040;-72
2022/04/06 04:57:44;;;;;;;28.77;20.57;;;8.00;85.30;;;;;;5072310;28;20408;-72
2022/04/06 05:00:10;;;;;;;25.80;19.87;;;8.00;84.40;;;;;;5071879;28;20033;-72
2022/04/06 05:02:38;;;;;;;27.23;20.20;;;8.00;84.10;;;;;;5071644;28;20032;-73
2022/04/06 05:05:06;;;;;;;30.77;20.30;;;8.00;83.60;;;;;;5071014;28;20037;-73
2022/04/06 05:07:33;;;;;;;26.93;20.73;;;8.10;83.30;;;;;;5072247;28;20093;-72
2022/04/06 05:09:59;;;;;;;28.93;21.40;;;8.10;82.80;;;;;;5071226;28;20135;-73
2022/04/06 05:12:26;;;;;;;29.27;21.90;;;8.10;82.60;;;;;;5071701;28;20404;-72
2022/04/06 05:14:52;;;;;;;32.33;21.47;;;8.20;83.10;;;;;;5070688;28;20083;-72
2022/04/06 05:17:17;;;;;;;30.33;20.73;;;8.10;84.10;;;;;;5071049;28;20396;-72
2022/04/06 05:19:43;;;;;;;30.47;21.10;;;8.10;83.00;;;;;;5071064;28;20187;-72
2022/04/06 05:22:09;;;;;;;23.90;20.37;;;8.10;82.50;;;;;;5070986;28;20108;-72
2022/04/06 05:24:35;;;;;;;23.87;19.47;;;8.20;82.10;;;;;;5070259;28;20070;-72
2022/04/06 05:27:02;;;;;;;24.70;19.27;;;8.20;81.70;;;;;;5070861;28;20040;-72
2022/04/06 05:29:28;;;;;;;28.63;21.67;;;8.20;82.00;;;;;;5051144;28;20565;-71
2022/04/06 05:31:53;;;;;;;25.90;20.17;;;8.20;83.90;;;;;;5069930;28;20056;-73
2022/04/06 05:34:19;;;;;;;30.53;22.50;;;8.10;84.30;;;;;;5069777;28;20068;-72
2022/04/06 05:36:44;;;;;;;30.87;21.67;;;8.20;83.50;;;;;;5069413;28;20036;-72
2022/04/06 05:39:11;;;;;;;29.00;20.83;;;8.10;83.20;;;;;;5073022;28;20481;-72
2022/04/06 05:41:36;;;;;;;28.50;21.67;;;8.20;82.80;;;;;;5073226;28;20059;-72
2022/04/06 05:44:02;;;;;;;25.90;21.47;;;8.20;82.30;;;;;;5074490;28;20028;-72
2022/04/06 05:46:29;;;;;;;38.67;21.90;;;8.20;82.60;;;;;;5072851;28;20044;-72
2022/04/06 05:48:55;;;;;;;38.43;22.63;;;8.20;82.80;;;;;;5073511;28;20519;-72
2022/04/06 05:51:21;;;;;;;31.70;21.93;;;8.20;83.20;;;;;;5072838;28;20408;-72
2022/04/06 05:53:47;;;;;;;31.67;20.73;;;8.20;83.00;;;;;;5073308;28;20065;-72
2022/04/06 05:56:13;;;;;;;35.90;20.20;;;8.30;82.50;;;;;;5072680;28;20509;-72
2022/04/06 05:58:38;;;;;;;27.73;20.87;;;8.30;82.00;;;;;;5073633;28;20033;-75
2022/04/06 06:01:04;;;;;;;28.30;21.87;;;8.30;82.10;;;;;;5073645;28;20040;-74
2022/04/06 06:03:30;;;;;;;34.47;22.27;;;8.40;82.30;;;;;;5073935;28;20115;-74
2022/04/06 06:05:56;;;;;;;33.93;22.47;;;8.40;82.30;;;;;;5074792;28;20040;-74
2022/04/06 06:08:21;;;;;;;31.27;21.50;;;8.40;82.10;;;;;;5073823;28;20043;-73
2022/04/06 06:10:47;;;;;;;26.60;21.40;;;8.40;81.70;;;;;;5074531;28;20416;-74
2022/04/06 06:13:13;;;;;;;37.60;21.87;;;8.50;81.40;;;;;;5058241;28;20546;-74
2022/04/06 06:15:39;;;;;;;34.57;20.80;;;8.50;81.60;;;;;;5076396;28;20044;-73
2022/04/06 06:18:05;;;;;;;26.60;20.60;;;8.60;81.50;;;;;;5076653;28;20082;-73
2022/04/06 06:20:30;;;;;;;33.77;21.30;;;8.60;81.60;;;;;;5076610;28;20036;-75
2022/04/06 06:22:56;;;;;;;30.10;20.27;;;8.60;81.60;;;;;;5075490;28;20028;-72
2022/04/06 06:25:21;;;;;;;33.07;20.90;;;8.60;81.40;;;;;;5074296;28;20035;-72
2022/04/06 06:27:47;;;;;;;25.63;21.53;;;8.70;81.10;;;;;;5075771;28;20438;-73
2022/04/06 06:30:13;;;;;;;29.80;22.20;;;8.70;81.10;;;;;;5075484;28;20683;-75
2022/04/06 06:32:40;;;;;;;26.63;20.87;;;8.80;81.10;;;;;;5075483;28;20044;-75
2022/04/06 06:35:08;;;;;;;29.03;21.43;;;8.90;81.20;;;;;;5075156;28;20063;-76
2022/04/06 06:37:34;;;;;;;26.10;20.77;;;8.90;80.90;;;;;;5075741;28;20408;-76
2022/04/06 06:40:00;;;;;;;27.40;20.37;;;8.90;80.20;;;;;;5075515;28;20035;-78
2022/04/06 06:42:26;;;;;;;28.33;21.23;;;9.00;80.20;;;;;;5075566;28;20032;-77
2022/04/06 06:44:51;;;;;;;28.37;20.63;;;9.00;80.00;;;;;;5075034;28;20040;-76
2022/04/06 06:47:17;;;;;;;27.67;20.27;;;9.10;80.10;;;;;;5075060;28;20052;-76
2022/04/06 06:49:46;;;;;;;25.33;20.57;;;9.10;79.60;;;;;;5075239;28;20419;-77
2022/04/06 06:52:13;;;;;;;26.77;19.27;;;9.20;78.90;;;;;;5075424;28;20033;-76
2022/04/06 06:54:39;;;;;;;24.80;20.40;;;9.20;78.40;;;;;;5075352;28;20040;-76
2022/04/06 06:57:05;;;;;;;22.50;18.17;;;9.30;78.20;;;;;;5075144;28;20070;-76
2022/04/06 06:59:31;;;;;;;24.30;19.13;;;9.30;77.90;;;;;;5075119;28;20469;-77
2022/04/06 07:01:56;;;;;;;23.27;18.87;;;9.40;77.20;;;;;;5074385;28;20032;-76
2022/04/06 07:04:22;;;;;;;22.70;19.37;;;9.50;77.10;;;;;;5075301;28;20435;-77
2022/04/06 07:06:49;;;;;;;25.73;20.13;;;9.50;76.90;;;;;;5075112;28;20071;-76
2022/04/06 07:09:16;;;;;;;24.83;19.57;;;9.60;77.20;;;;;;5074970;28;20033;-77
2022/04/06 07:11:42;;;;;;;38.30;21.10;;;9.60;77.30;;;;;;5075110;28;20040;-77
2022/04/06 07:14:07;;;;;;;26.00;20.63;;;9.70;76.70;;;;;;5074635;28;20040;-79
2022/04/06 07:16:33;;;;;;;27.60;19.20;;;9.80;77.00;;;;;;5074405;28;20044;-78
2022/04/06 07:18:59;;;;;;;29.87;19.47;;;9.80;76.40;;;;;;5073537;28;20030;-77
2022/04/06 07:21:25;;;;;;;24.80;19.30;;;9.90;76.10;;;;;;5073581;28;20036;-75
2022/04/06 07:23:51;;;;;;;24.97;19.50;;;10.00;75.90;;;;;;5074390;28;20031;-76
2022/04/06 07:26:17;;;;;;;24.83;19.47;;;10.10;75.40;;;;;;5074497;28;20370;-75
2022/04/06 07:28:46;;;;;;;24.77;19.97;;;10.10;75.00;;;;;;5074620;28;20044;-75
2022/04/06 07:31:12;;;;;;;22.03;19.63;;;10.20;74.80;;;;;;5074446;28;20044;-74
2022/04/06 07:33:38;;;;;;;24.17;20.20;;;10.30;74.50;;;;;;5071706;28;20051;-75
2022/04/06 07:36:05;;;;;;;24.27;19.97;;;10.30;74.60;;;;;;5074384;28;20052;-74
2022/04/06 07:38:31;;;;;;;23.93;20.13;;;10.30;74.30;;;;;;5074082;28;20389;-75
2022/04/06 07:40:57;;;;;;;23.63;20.17;;;10.40;74.00;;;;;;5073949;28;20042;-75
2022/04/06 07:43:23;;;;;;;24.17;19.80;;;10.40;73.80;;;;;;5073794;28;20079;-75
2022/04/06 07:45:49;;;;;;;27.20;19.77;;;10.50;73.20;;;;;;5074185;28;20090;-75
2022/04/06 07:48:15;;;;;;;28.27;20.47;;;10.50;73.70;;;;;;5073508;28;20020;-75
2022/04/06 07:50:41;;;;;;;26.50;19.87;;;10.60;73.60;;;;;;5073744;28;20079;-76
2022/04/06 07:53:06;;;;;;;28.90;20.15;;;10.70;73.50;;;;;;5074209;28;20412;-74
2022/04/06 07:55:33;;;;;;;26.40;21.27;;;10.80;73.40;;;;;;5073617;28;20443;-74
2022/04/06 07:57:59;;;;;;;24.27;20.20;;;10.80;72.80;;;;;;5074173;28;20052;-75
2022/04/06 08:00:25;;;;;;;29.77;19.67;;;10.90;72.30;;;;;;5073012;28;20067;-75
2022/04/06 08:02:51;;;;;;;27.23;21.17;;;10.90;72.40;;;;;;5074001;28;20111;-75
2022/04/06 08:05:18;;;;;;;26.60;20.67;;;11.00;72.50;;;;;;5073956;28;20033;-74
2022/04/06 08:07:44;;;;;;;27.63;21.95;;;11.00;72.40;;;;;;5073802;28;20039;-75
2022/04/06 08:10:12;;;;;;;26.85;21.35;;;11.10;72.90;;;;;;5073748;28;20033;-75
2022/04/06 08:12:38;;;;;;;28.02;21.17;;;11.10;72.60;;;;;;5074273;28;20381;-75
2022/04/06 08:15:05;;;;;;;25.73;21.20;;;11.20;72.60;;;;;;5073673;28;20449;-76
2022/04/06 08:17:36;;;;;;;26.38;20.98;;;11.30;72.70;;;;;;5073790;28;20036;-74
2022/04/06 08:20:04;;;;;;;27.25;21.02;;;11.40;72.00;;;;;;5073638;28;20039;-75
2022/04/06 08:22:30;;;;;;;26.38;22.00;;;11.40;72.00;;;;;;5073729;28;20044;-75
2022/04/06 08:24:55;;;;;;;27.13;22.92;;;11.50;72.00;;;;;;5073613;28;20405;-75
2022/04/06 08:27:21;;;;;;;30.08;24.92;;;11.50;71.90;;;;;;5073795;28;20035;-74
2022/04/06 08:29:46;;;;;;;32.42;28.60;;;11.60;71.60;;;;;;5073260;28;20040;-75
2022/04/06 08:32:14;;;;;;;31.85;26.25;;;11.60;70.80;;;;;;5072965;28;20029;-76
2022/04/06 08:34:39;;;;;;;33.38;27.88;;;11.70;71.20;;;;;;5073253;28;20469;-75
2022/04/06 08:37:05;;;;;;;37.35;30.17;;;11.70;70.90;;;;;;5073234;28;20048;-75
2022/04/06 08:39:31;;;;;;;45.20;30.92;;;11.90;70.50;;;;;;5073280;28;20040;-76
2022/04/06 08:41:57;;;;;;;39.33;31.98;;;11.90;71.10;;;;;;5073591;28;20029;-74
2022/04/06 13:02:54;;;;;;;38.63;30.70;;;;;;;;;;5069102;28;20423;-76
2022/04/06 13:05:21;;;;;;;40.88;32.50;;;;;;;;;;5070345;28;20107;-71
2022/04/06 13:07:49;;;;;;;33.70;27.70;;;;;;;;;;5070030;28;20021;-71
2022/04/06 13:10:15;;;;;;;40.05;30.95;;;;;;;;;;5070110;28;20025;-71
2022/04/06 13:12:42;;;;;;;44.38;32.42;;;;;;;;;;5070170;28;20047;-69
2022/04/06 13:15:09;;;;;;;37.10;31.00;;;;;;;;;;5069928;28;20275;-70
2022/04/06 13:17:36;;;;;;;38.90;32.33;;;;;;;;;;5070089;28;20024;-82
2022/04/06 13:20:02;;;;;;;42.30;31.60;;;;;;;;;;5070062;28;20439;-77
2022/04/06 13:22:28;;;;;;;39.08;30.35;;;;;;;;;;5069721;28;20033;-70
2022/04/06 13:24:54;;;;;;;37.58;31.00;;;;;;;;;;5069821;28;20017;-72
2022/04/06 13:27:22;;;;;;;34.33;30.55;;;;;;;;;;5069854;28;20530;-71
2022/04/06 13:29:48;;;;;;;61.45;31.33;;;;;;;;;;5069643;28;20120;-70
2022/04/06 13:32:14;;;;;;;46.72;30.65;;;;;;;;;;5069846;28;20025;-71
2022/04/06 13:34:40;;;;;;;37.95;29.00;;;;;;;;;;5069958;28;20032;-71
2022/04/06 13:37:07;;;;;;;40.10;31.27;;;;;;;;;;5069672;28;20385;-72
2022/04/06 13:39:33;;;;;;;36.00;29.13;;;;;;;;;;5069356;28;20023;-76
2022/04/06 13:42:01;;;;;;;37.38;32.95;;;;;;;;;;5069422;28;20393;-71
2022/04/06 13:44:28;;;;;;;36.13;30.45;;;;;;;;;;5069378;28;20017;-72
2022/04/06 13:46:54;;;;;;;39.55;31.35;;;;;;;;;;5069419;28;20366;-72
2022/04/06 13:49:21;;;;;;;38.60;30.92;;;;;;;;;;5069268;28;20021;-71
2022/04/06 13:51:47;;;;;;;43.85;31.67;;;;;;;;;;5067397;28;20025;-71
2022/04/06 13:54:14;;;;;;;36.47;32.10;;;;;;;;;;5067453;28;20029;-74
2022/04/06 13:56:40;;;;;;;33.65;28.75;;;;;;;;;;5069048;28;20035;-72
2022/04/06 13:59:07;;;;;;;33.10;29.48;;;;;;;;;;5069309;28;20091;-72
2022/04/06 14:01:33;;;;;;;32.92;28.85;;;;;;;;;;5067783;28;20051;-75
2022/04/06 14:03:59;;;;;;;36.00;31.85;;;;;;;;;;5069237;28;20071;-72
2022/04/06 14:06:25;;;;;;;40.25;32.47;;;;;;;;;;5069172;28;20060;-71
2022/04/06 14:08:51;;;;;;;36.15;29.67;;;;;;;;;;5068803;28;20055;-71
2022/04/06 14:11:18;;;;;;;35.13;30.08;;;;;;;;;;5067009;28;20374;-72
2022/04/06 14:13:44;;;;;;;37.47;33.38;;;;;;;;;;5057364;28;20557;-72
2022/04/06 14:16:10;;;;;;;33.80;29.73;;;;;;;;;;5055743;28;20492;-71
2022/04/06 14:18:37;;;;;;;38.92;31.23;;;;;;;;;;5055809;28;20029;-72
2022/04/06 14:21:03;;;;;;;38.47;31.75;;;;;;;;;;5055562;28;20116;-72
2022/04/06 14:23:29;;;;;;;38.33;30.40;;;;;;;;;;5055462;28;20021;-72
2022/04/06 14:25:56;;;;;;;35.10;26.15;;;;;;;;;;5056062;28;20131;-72
2022/04/06 14:28:22;;;;;;;35.85;27.63;;;;;;;;;;5055053;28;20385;-71
2022/04/06 14:30:53;;;;;;;37.45;31.17;;;;;;;;;;5055341;28;20037;-72
2022/04/06 14:33:20;;;;;;;36.60;30.85;;;;;;;;;;5055084;28;20104;-76
2022/04/06 14:35:46;;;;;;;36.30;32.50;;;;;;;;;;5055141;28;20025;-72
2022/04/06 14:38:14;;;;;;;34.08;26.50;;;;;;;;;;5055227;28;20071;-72
2022/04/06 14:40:41;;;;;;;31.30;25.23;;;;;;;;;;5055172;28;20056;-71
2022/04/06 14:43:07;;;;;;;29.73;22.77;;;;;;;;;;5055229;28;20036;-78
2022/04/06 14:45:34;;;;;;;26.83;22.55;;;;;;;;;;5055287;28;20060;-71
2022/04/06 14:48:00;;;;;;;27.45;22.73;;;;;;;;;;5054818;28;20119;-71
2022/04/06 14:50:26;;;;;;;26.00;23.23;;;;;;;;;;5054499;28;20032;-76
2022/04/06 14:52:52;;;;;;;26.77;23.90;;;;;;;;;;5052595;28;20021;-75
2022/04/06 14:55:18;;;;;;;29.08;24.30;;;;;;;;;;5054616;28;20470;-75
2022/04/06 14:57:45;;;;;;;38.63;29.30;;;;;;;;;;5054440;28;20063;-74
2022/04/06 15:00:11;;;;;;;36.00;27.60;;;;;;;;;;5054189;28;20423;-71
2022/04/06 15:02:37;;;;;;;30.92;25.35;;;;;;;;;;5054175;28;20056;-75
2022/04/06 15:05:04;;;;;;;34.00;27.60;;;;;;;;;;5054472;28;20147;-75
2022/04/06 15:07:33;;;;;;;28.52;25.33;;;;;;;;;;5054059;28;20021;-76
2022/04/06 15:09:59;;;;;;;36.40;27.60;;;;;;;;;;5054663;28;20033;-70
2022/04/06 15:12:25;;;;;;;30.27;27.02;;;;;;;;;;5054552;28;20017;-75
2022/04/06 15:14:51;;;;;;;36.75;28.25;;;;;;;;;;5054533;28;20103;-75
2022/04/06 15:17:17;;;;;;;29.60;26.42;;;;;;;;;;5054216;28;20021;-76
2022/04/06 15:19:45;;;;;;;33.17;26.77;;;;;;;;;;5053730;28;20041;-76
2022/04/06 15:22:11;;;;;;;30.25;26.02;;;;;;;;;;5051855;28;20033;-75
2022/04/06 15:24:37;;;;;;;30.50;26.17;;;;;;;;;;5051038;28;20029;-72
2022/04/06 15:27:04;;;;;;;36.28;26.80;;;;;;;;;;5053509;28;20032;-75
2022/04/06 15:29:30;;;;;;;33.90;27.17;;;;;;;;;;5053861;28;20017;-75
2022/04/06 15:31:56;;;;;;;34.83;29.45;;;;;;;;;;5053352;28;20104;-71
2022/04/06 15:37:26;;;;;;;31.80;27.92;;;;;;;;;;5042384;28;20128;-76
2022/04/06 15:39:53;;;;;;;30.30;27.00;;;;;;;;;;5053493;28;20017;-76
2022/04/06 15:42:26;;;;;;;32.35;27.83;;;;;;;;;;5052720;28;20072;-74
2022/04/06 15:44:56;;;;;;;31.77;25.08;;;;;;;;;;5053259;28;20020;-75
2022/04/06 15:47:23;;;;;;;32.92;23.98;;;;;;;;;;5053649;28;20124;-73
2022/04/06 15:49:51;;;;;;;27.33;22.60;;;;;;;;;;5052328;28;20603;-75
2022/04/06 15:52:18;;;;;;;27.02;22.40;;;;;;;;;;5053509;28;20504;-71
2022/04/06 15:54:44;;;;;;;30.77;22.25;;;;;;;;;;5053593;28;20070;-71
2022/04/06 15:57:11;;;;;;;31.60;22.73;;;;;;;;;;5054449;28;20025;-72
2022/04/06 15:59:37;;;;;;;30.65;23.17;;;;;;;;;;5053251;28;20029;-72
2022/04/06 16:02:03;;;;;;;25.25;22.60;;;;;;;;;;5053538;28;20088;-71
2022/04/06 16:04:30;;;;;;;30.23;22.55;;;;;;;;;;5053773;28;20025;-71
2022/04/06 16:06:57;;;;;;;28.60;23.35;;;;;;;;;;5053566;28;20024;-71
2022/04/06 16:09:23;;;;;;;28.80;22.83;;;;;;;;;;5053712;28;20025;-71
2022/04/06 16:11:49;;;;;;;23.08;20.63;;;;;;;;;;5053696;28;20535;-71
2022/04/06 16:14:15;;;;;;;29.65;21.90;;;;;;;;;;5053474;28;20045;-71
2022/04/06 16:16:41;;;;;;;26.95;21.55;;;;;;;;;;5053880;28;20033;-71
2022/04/06 16:19:07;;;;;;;25.95;22.23;;;;;;;;;;5053524;28;20040;-71
2022/04/06 16:21:33;;;;;;;28.05;24.05;;;;;;;;;;5053452;28;20559;-71
2022/04/06 16:23:59;;;;;;;31.30;24.13;;;;;;;;;;5053365;28;20025;-71
2022/04/06 16:26:25;;;;;;;26.70;23.58;;;;;;;;;;5053259;28;20069;-71
2022/04/06 16:28:51;;;;;;;27.77;24.23;;;;;;;;;;5053279;28;20018;-71
2022/04/06 16:31:18;;;;;;;28.05;24.90;;;;;;;;;;5053033;28;20033;-71
2022/04/06 16:33:44;;;;;;;23.50;19.45;;;;;;;;;;5053373;28;20052;-71
2022/04/06 16:36:10;;;;;;;22.35;18.23;;;;;;;;;;5052953;28;20377;-71
2022/04/06 16:38:37;;;;;;;24.25;19.05;;;;;;;;;;5053093;28;20470;-72
2022/04/06 16:41:03;;;;;;;25.40;20.27;;;;;;;;;;5052941;28;20033;-71
2022/04/06 16:43:29;;;;;;;23.80;19.25;;;;;;;;;;5052938;28;20021;-75
2022/04/06 16:45:55;;;;;;;21.95;19.58;;;;;;;;;;5053031;28;20410;-73
2022/04/06 16:48:21;;;;;;;23.38;20.30;;;;;;;;;;5052748;28;20385;-71
2022/04/06 16:53:32;;;;;;;24.88;20.13;;;;;;;;;;5053037;28;20032;-72
2022/04/06 16:55:58;;;;;;;23.73;20.63;;;;;;;;;;5053375;28;20025;-74
2022/04/06 16:58:24;;;;;;;23.45;20.85;;;;;;;;;;5053147;28;20485;-72
2022/04/06 17:00:50;;;;;;;26.70;21.48;;;;;;;;;;5052736;28;20112;-72
2022/04/06 17:03:16;;;;;;;29.60;22.02;;;;;;;;;;5052669;28;20025;-71
2022/04/06 17:05:42;;;;;;;26.83;21.15;;;;;;;;;;5052885;28;20043;-71
2022/04/06 17:08:13;;;;;;;25.85;20.75;;;;;;;;;;5053171;28;20029;-75
2022/04/06 17:10:39;;;;;;;28.27;19.10;;;;;;;;;;5053185;28;20029;-71
2022/04/06 17:13:06;;;;;;;25.90;18.48;;;;;;;;;;5052815;28;20021;-75
2022/04/06 17:15:32;;;;;;;20.85;17.35;;;;;;;;;;5052574;28;20056;-75
2022/04/06 17:17:58;;;;;;;19.83;17.10;;;;;;;;;;5052590;28;20051;-71
2022/04/06 17:20:25;;;;;;;19.85;16.05;;;;;;;;;;5052623;28;20029;-71
2022/04/06 17:22:51;;;;;;;25.85;16.30;;;;;;;;;;5052018;28;20043;-71
2022/04/06 17:25:17;;;;;;;18.25;14.77;;;;;;;;;;5052533;28;20075;-71
2022/04/06 17:27:43;;;;;;;21.25;14.23;;;;;;;;;;5052307;28;20036;-74
2022/04/06 17:30:13;;;;;;;19.65;13.60;;;;;;;;;;5052715;28;20024;-73
2022/04/06 17:32:39;;;;;;;20.58;14.32;;;;;;;;;;5051034;28;20025;-72